sensor_id;sensor_type;location;lat;lon;timestamp;pressure;altitude;pressure_sealevel;temperature;humidity
4449;BME280;2237;51.870;6.160;2023-07-13T00:01:48;101257.66;;;18.33;100.00
4449;BME280;2237;51.870;6.160;2023-07-13T00:04:22;101253.78;;;18.40;100.00
4449;BME280;2237;51.870;6.160;2023-07-13T00:06:52;101262.72;;;18.38;100.00
4449;BME280;2237;51.870;6.160;2023-07-13T00:09:19;101264.56;;;18.36;100.00
4449;BME280;2237;51.870;6.160;2023-07-13T00:11:50;101265.72;;;18.30;100.00
4449;BME280;2237;51.870;6.160;2023-07-13T00:14:17;101263.59;;;18.20;100.00
4449;BME280;2237;51.870;6.160;2023-07-13T00:16:44;101264.56;;;18.17;100.00
4449;BME280;2237;51.870;6.160;2023-07-13T00:19:12;101283.03;;;18.17;100.00
4449;BME280;2237;51.870;6.160;2023-07-13T00:21:39;101272.47;;;18.17;100.00
4449;BME280;2237;51.870;6.160;2023-07-13T00:24:08;101260.53;;;18.10;100.00
4449;BME280;2237;51.870;6.160;2023-07-13T00:26:39;101269.50;;;18.06;100.00
4449;BME280;2237;51.870;6.160;2023-07-13T00:29:06;101268.84;;;18.01;100.00
4449;BME280;2237;51.870;6.160;2023-07-13T00:31:35;101265.84;;;18.08;100.00
4449;BME280;2237;51.870;6.160;2023-07-13T00:34:02;101270.44;;;18.05;100.00
4449;BME280;2237;51.870;6.160;2023-07-13T00:36:30;101279.41;;;18.01;100.00
4449;BME280;2237;51.870;6.160;2023-07-13T00:38:57;101270.44;;;18.05;100.00
4449;BME280;2237;51.870;6.160;2023-07-13T00:41:23;101276.19;;;18.13;100.00
4449;BME280;2237;51.870;6.160;2023-07-13T00:43:50;101276.34;;;18.10;100.00
4449;BME280;2237;51.870;6.160;2023-07-13T00:46:26;101269.50;;;18.06;100.00
4449;BME280;2237;51.870;6.160;2023-07-13T00:48:54;101278.53;;;18.00;100.00
4449;BME280;2237;51.870;6.160;2023-07-13T00:51:27;101277.03;;;17.95;100.00
4449;BME280;2237;51.870;6.160;2023-07-13T00:53:57;101272.69;;;17.94;100.00
4449;BME280;2237;51.870;6.160;2023-07-13T00:56:26;101269.72;;;18.01;100.00
4449;BME280;2237;51.870;6.160;2023-07-13T00:58:53;101265.72;;;18.12;100.00
4449;BME280;2237;51.870;6.160;2023-07-13T01:01:19;101272.63;;;18.14;100.00
4449;BME280;2237;51.870;6.160;2023-07-13T01:03:46;101276.41;;;18.08;100.00
4449;BME280;2237;51.870;6.160;2023-07-13T01:06:13;101272.75;;;18.11;100.00
4449;BME280;2237;51.870;6.160;2023-07-13T01:08:39;101278.97;;;18.10;100.00
4449;BME280;2237;51.870;6.160;2023-07-13T01:11:06;101265.16;;;18.05;100.00
4449;BME280;2237;51.870;6.160;2023-07-13T01:13:34;101267.06;;;18.01;100.00
4449;BME280;2237;51.870;6.160;2023-07-13T01:16:05;101276.91;;;17.98;100.00
4449;BME280;2237;51.870;6.160;2023-07-13T01:18:38;101271.91;;;17.92;100.00
4449;BME280;2237;51.870;6.160;2023-07-13T01:21:04;101278.75;;;17.96;100.00
4449;BME280;2237;51.870;6.160;2023-07-13T01:23:32;101272.13;;;17.87;100.00
4449;BME280;2237;51.870;6.160;2023-07-13T01:25:59;101285.91;;;17.74;100.00
4449;BME280;2237;51.870;6.160;2023-07-13T01:28:27;101276.75;;;17.62;100.00
4449;BME280;2237;51.870;6.160;2023-07-13T01:30:56;101286.31;;;17.65;100.00
4449;BME280;2237;51.870;6.160;2023-07-13T01:33:24;101282.69;;;17.67;100.00
4449;BME280;2237;51.870;6.160;2023-07-13T01:35:50;101281.47;;;17.56;100.00
4449;BME280;2237;51.870;6.160;2023-07-13T01:38:21;101280.13;;;17.66;100.00
4449;BME280;2237;51.870;6.160;2023-07-13T01:40:49;101276.56;;;17.46;100.00
4449;BME280;2237;51.870;6.160;2023-07-13T01:43:15;101269.72;;;17.42;100.00
4449;BME280;2237;51.870;6.160;2023-07-13T01:45:42;101273.94;;;17.46;100.00
4449;BME280;2237;51.870;6.160;2023-07-13T01:48:12;101276.91;;;17.59;100.00
4449;BME280;2237;51.870;6.160;2023-07-13T01:50:39;101258.81;;;17.50;100.00
4449;BME280;2237;51.870;6.160;2023-07-13T01:53:06;101259.69;;;17.50;100.00
4449;BME280;2237;51.870;6.160;2023-07-13T01:55:33;101267.03;;;17.44;100.00
4449;BME280;2237;51.870;6.160;2023-07-13T01:58:00;101264.56;;;17.39;100.00
4449;BME280;2237;51.870;6.160;2023-07-13T02:00:27;101270.50;;;17.24;100.00
4449;BME280;2237;51.870;6.160;2023-07-13T02:02:53;101268.97;;;17.19;100.00
4449;BME280;2237;51.870;6.160;2023-07-13T02:05:20;101273.97;;;17.25;100.00
4449;BME280;2237;51.870;6.160;2023-07-13T02:07:46;101271.69;;;17.17;100.00
4449;BME280;2237;51.870;6.160;2023-07-13T02:10:13;101273.97;;;17.25;100.00
4449;BME280;2237;51.870;6.160;2023-07-13T02:12:41;101277.09;;;17.14;100.00
4449;BME280;2237;51.870;6.160;2023-07-13T02:15:08;101264.78;;;17.15;100.00
4449;BME280;2237;51.870;6.160;2023-07-13T02:17:36;101278.13;;;17.10;100.00
4449;BME280;2237;51.870;6.160;2023-07-13T02:20:04;101276.47;;;17.08;100.00
4449;BME280;2237;51.870;6.160;2023-07-13T02:22:30;101273.72;;;17.11;100.00
4449;BME280;2237;51.870;6.160;2023-07-13T02:24:57;101263.56;;;17.02;100.00
4449;BME280;2237;51.870;6.160;2023-07-13T02:27:23;101262.19;;;17.13;100.00
4449;BME280;2237;51.870;6.160;2023-07-13T02:29:50;101267.47;;;17.13;100.00
4449;BME280;2237;51.870;6.160;2023-07-13T02:32:18;101272.84;;;17.10;100.00
4449;BME280;2237;51.870;6.160;2023-07-13T02:34:45;101265.56;;;17.17;100.00
4449;BME280;2237;51.870;6.160;2023-07-13T02:37:11;101271.09;;;17.11;100.00
4449;BME280;2237;51.870;6.160;2023-07-13T02:39:38;101268.84;;;17.02;100.00
4449;BME280;2237;51.870;6.160;2023-07-13T02:42:05;101272.19;;;17.05;100.00
4449;BME280;2237;51.870;6.160;2023-07-13T02:44:31;101279.22;;;17.05;100.00
4449;BME280;2237;51.870;6.160;2023-07-13T02:46:57;101270.56;;;17.03;100.00
4449;BME280;2237;51.870;6.160;2023-07-13T02:49:24;101285.22;;;17.08;100.00
4449;BME280;2237;51.870;6.160;2023-07-13T02:51:51;101277.59;;;17.02;100.00
4449;BME280;2237;51.870;6.160;2023-07-13T02:54:17;101278.81;;;16.93;100.00
4449;BME280;2237;51.870;6.160;2023-07-13T02:56:43;101285.59;;;16.99;100.00
4449;BME280;2237;51.870;6.160;2023-07-13T02:59:10;101283.84;;;17.00;100.00
4449;BME280;2237;51.870;6.160;2023-07-13T03:01:37;101287.38;;;16.99;100.00
4449;BME280;2237;51.870;6.160;2023-07-13T03:04:04;101289.75;;;17.05;100.00
4449;BME280;2237;51.870;6.160;2023-07-13T03:06:32;101294.16;;;17.04;100.00
4449;BME280;2237;51.870;6.160;2023-07-13T03:08:59;101292.84;;;16.94;100.00
4449;BME280;2237;51.870;6.160;2023-07-13T03:11:26;101299.53;;;17.01;100.00
4449;BME280;2237;51.870;6.160;2023-07-13T03:13:52;101293.09;;;16.88;100.00
4449;BME280;2237;51.870;6.160;2023-07-13T03:16:19;101298.84;;;16.76;100.00
4449;BME280;2237;51.870;6.160;2023-07-13T03:18:47;101300.25;;;16.63;100.00
4449;BME280;2237;51.870;6.160;2023-07-13T03:21:14;101303.56;;;16.68;100.00
4449;BME280;2237;51.870;6.160;2023-07-13T03:23:41;101306.13;;;16.69;100.00
4449;BME280;2237;51.870;6.160;2023-07-13T03:26:18;101314.94;;;16.68;100.00
4449;BME280;2237;51.870;6.160;2023-07-13T03:28:45;101311.81;;;16.59;100.00
4449;BME280;2237;51.870;6.160;2023-07-13T03:31:15;101315.22;;;16.61;100.00
4449;BME280;2237;51.870;6.160;2023-07-13T03:33:42;101311.22;;;16.74;100.00
4449;BME280;2237;51.870;6.160;2023-07-13T03:36:14;101318.28;;;16.72;100.00
4449;BME280;2237;51.870;6.160;2023-07-13T03:38:42;101322.53;;;16.53;100.00
4449;BME280;2237;51.870;6.160;2023-07-13T03:41:08;101320.50;;;16.61;100.00
4449;BME280;2237;51.870;6.160;2023-07-13T03:43:35;101323.50;;;16.50;100.00
4449;BME280;2237;51.870;6.160;2023-07-13T03:46:01;101324.84;;;16.62;100.00
4449;BME280;2237;51.870;6.160;2023-07-13T03:48:28;101331.00;;;16.61;100.00
4449;BME280;2237;51.870;6.160;2023-07-13T03:50:54;101325.97;;;16.55;100.00
4449;BME280;2237;51.870;6.160;2023-07-13T03:53:21;101332.84;;;16.59;100.00
4449;BME280;2237;51.870;6.160;2023-07-13T03:55:47;101331.09;;;16.59;100.00
4449;BME280;2237;51.870;6.160;2023-07-13T03:58:27;101327.59;;;16.59;100.00
4449;BME280;2237;51.870;6.160;2023-07-13T04:00:55;101323.13;;;16.61;100.00
4449;BME280;2237;51.870;6.160;2023-07-13T04:03:21;101329.44;;;16.57;100.00
4449;BME280;2237;51.870;6.160;2023-07-13T04:05:48;101331.63;;;16.67;100.00
4449;BME280;2237;51.870;6.160;2023-07-13T04:08:15;101332.41;;;16.69;100.00
4449;BME280;2237;51.870;6.160;2023-07-13T04:10:42;101328.94;;;16.69;100.00
4449;BME280;2237;51.870;6.160;2023-07-13T04:13:09;101332.50;;;16.68;100.00
4449;BME280;2237;51.870;6.160;2023-07-13T04:15:35;101328.25;;;16.64;100.00
4449;BME280;2237;51.870;6.160;2023-07-13T04:18:02;101332.38;;;16.71;100.00
4449;BME280;2237;51.870;6.160;2023-07-13T04:20:29;101342.59;;;16.78;100.00
4449;BME280;2237;51.870;6.160;2023-07-13T04:22:56;101342.78;;;16.74;100.00
4449;BME280;2237;51.870;6.160;2023-07-13T04:25:24;101345.81;;;16.85;100.00
4449;BME280;2237;51.870;6.160;2023-07-13T04:27:50;101341.59;;;16.81;100.00
4449;BME280;2237;51.870;6.160;2023-07-13T04:30:17;101343.13;;;16.65;100.00
4449;BME280;2237;51.870;6.160;2023-07-13T04:32:43;101342.78;;;16.74;100.00
4449;BME280;2237;51.870;6.160;2023-07-13T04:35:10;101342.59;;;16.78;100.00
4449;BME280;2237;51.870;6.160;2023-07-13T04:37:36;101350.34;;;16.81;100.00
4449;BME280;2237;51.870;6.160;2023-07-13T04:40:03;101347.84;;;16.78;100.00
4449;BME280;2237;51.870;6.160;2023-07-13T04:42:30;101347.78;;;16.80;100.00
4449;BME280;2237;51.870;6.160;2023-07-13T04:44:56;101364.97;;;16.67;100.00
4449;BME280;2237;51.870;6.160;2023-07-13T04:47:23;101350.59;;;16.75;100.00
4449;BME280;2237;51.870;6.160;2023-07-13T04:49:49;101366.25;;;16.78;100.00
4449;BME280;2237;51.870;6.160;2023-07-13T04:52:15;101359.78;;;16.87;100.00
4449;BME280;2237;51.870;6.160;2023-07-13T04:54:42;101371.69;;;16.95;100.00
4449;BME280;2237;51.870;6.160;2023-07-13T04:57:08;101371.78;;;16.94;100.00
4449;BME280;2237;51.870;6.160;2023-07-13T04:59:35;101372.44;;;16.99;100.00
4449;BME280;2237;51.870;6.160;2023-07-13T05:02:01;101369.31;;;17.11;100.00
4449;BME280;2237;51.870;6.160;2023-07-13T05:04:28;101372.94;;;17.09;100.00
4449;BME280;2237;51.870;6.160;2023-07-13T05:06:54;101377.00;;;17.16;100.00
4449;BME280;2237;51.870;6.160;2023-07-13T05:09:21;101376.34;;;17.11;100.00
4449;BME280;2237;51.870;6.160;2023-07-13T05:11:47;101378.63;;;17.20;100.00
4449;BME280;2237;51.870;6.160;2023-07-13T05:14:14;101376.34;;;17.11;100.00
4449;BME280;2237;51.870;6.160;2023-07-13T05:16:42;101381.16;;;17.21;100.00
4449;BME280;2237;51.870;6.160;2023-07-13T05:19:09;101378.03;;;17.33;100.00
4449;BME280;2237;51.870;6.160;2023-07-13T05:21:36;101379.84;;;17.53;100.00
4449;BME280;2237;51.870;6.160;2023-07-13T05:24:02;101384.03;;;17.37;100.00
4449;BME280;2237;51.870;6.160;2023-07-13T05:26:44;101386.31;;;17.46;100.00
4449;BME280;2237;51.870;6.160;2023-07-13T05:29:11;101389.50;;;17.32;100.00
4449;BME280;2237;51.870;6.160;2023-07-13T05:31:37;101389.63;;;17.29;100.00
4449;BME280;2237;51.870;6.160;2023-07-13T05:34:07;101396.69;;;17.29;100.00
4449;BME280;2237;51.870;6.160;2023-07-13T05:36:33;101396.19;;;17.19;100.00
4449;BME280;2237;51.870;6.160;2023-07-13T05:39:00;101401.00;;;17.30;100.00
4449;BME280;2237;51.870;6.160;2023-07-13T05:41:26;101393.59;;;17.39;100.00
4449;BME280;2237;51.870;6.160;2023-07-13T05:43:52;101398.28;;;17.53;100.00
4449;BME280;2237;51.870;6.160;2023-07-13T05:46:19;101400.06;;;17.52;100.00
4449;BME280;2237;51.870;6.160;2023-07-13T05:48:45;101397.81;;;17.43;100.00
4449;BME280;2237;51.870;6.160;2023-07-13T05:51:11;101397.50;;;17.51;100.00
4449;BME280;2237;51.870;6.160;2023-07-13T05:53:38;101405.13;;;17.59;100.00
4449;BME280;2237;51.870;6.160;2023-07-13T05:56:05;101407.47;;;17.65;100.00
4449;BME280;2237;51.870;6.160;2023-07-13T05:58:31;101413.47;;;17.68;100.00
4449;BME280;2237;51.870;6.160;2023-07-13T06:01:04;101412.09;;;17.80;100.00
4449;BME280;2237;51.870;6.160;2023-07-13T06:03:31;101418.22;;;17.80;100.00
4449;BME280;2237;51.870;6.160;2023-07-13T06:05:58;101411.44;;;17.95;100.00
4449;BME280;2237;51.870;6.160;2023-07-13T06:08:27;101419.81;;;18.04;100.00
4449;BME280;2237;51.870;6.160;2023-07-13T06:10:53;101428.09;;;18.16;100.00
4449;BME280;2237;51.870;6.160;2023-07-13T06:13:20;101421.09;;;18.15;100.00
4449;BME280;2237;51.870;6.160;2023-07-13T06:15:49;101427.97;;;18.19;100.00
4449;BME280;2237;51.870;6.160;2023-07-13T06:18:16;101431.34;;;18.22;100.00
4449;BME280;2237;51.870;6.160;2023-07-13T06:20:42;101439.25;;;18.41;100.00
4449;BME280;2237;51.870;6.160;2023-07-13T06:23:09;101446.53;;;18.56;100.00
4449;BME280;2237;51.870;6.160;2023-07-13T06:25:35;101438.88;;;18.50;100.00
4449;BME280;2237;51.870;6.160;2023-07-13T06:28:02;101447.53;;;18.53;100.00
4449;BME280;2237;51.870;6.160;2023-07-13T06:30:28;101445.19;;;18.85;100.00
4449;BME280;2237;51.870;6.160;2023-07-13T06:32:55;101452.28;;;18.25;100.00
4449;BME280;2237;51.870;6.160;2023-07-13T06:35:21;101455.56;;;18.30;100.00
4449;BME280;2237;51.870;6.160;2023-07-13T06:37:48;101449.25;;;18.73;100.00
4449;BME280;2237;51.870;6.160;2023-07-13T06:40:14;101452.97;;;18.88;100.00
4449;BME280;2237;51.870;6.160;2023-07-13T06:42:41;101453.75;;;18.90;100.00
4449;BME280;2237;51.870;6.160;2023-07-13T06:45:07;101458.59;;;18.99;100.00
4449;BME280;2237;51.870;6.160;2023-07-13T06:47:34;101450.56;;;18.83;100.00
4449;BME280;2237;51.870;6.160;2023-07-13T06:50:01;101456.38;;;18.90;100.00
4449;BME280;2237;51.870;6.160;2023-07-13T06:52:27;101456.13;;;18.77;100.00
4449;BME280;2237;51.870;6.160;2023-07-13T06:54:54;101455.38;;;18.74;100.00
4449;BME280;2237;51.870;6.160;2023-07-13T06:57:20;101459.38;;;18.82;100.00
4449;BME280;2237;51.870;6.160;2023-07-13T06:59:46;101465.78;;;18.95;100.00
4449;BME280;2237;51.870;6.160;2023-07-13T07:02:13;101465.66;;;18.98;100.00
4449;BME280;2237;51.870;6.160;2023-07-13T07:04:39;101470.94;;;18.98;100.00
4449;BME280;2237;51.870;6.160;2023-07-13T07:07:06;101466.66;;;19.14;100.00
4449;BME280;2237;51.870;6.160;2023-07-13T07:09:32;101469.63;;;19.26;100.00
4449;BME280;2237;51.870;6.160;2023-07-13T07:11:58;101464.97;;;19.31;100.00
4449;BME280;2237;51.870;6.160;2023-07-13T07:14:30;101471.47;;;19.42;100.00
4449;BME280;2237;51.870;6.160;2023-07-13T07:16:57;101465.91;;;19.48;100.00
4449;BME280;2237;51.870;6.160;2023-07-13T07:19:26;101468.25;;;19.71;100.00
4449;BME280;2237;51.870;6.160;2023-07-13T07:21:52;101471.53;;;19.77;100.00
4449;BME280;2237;51.870;6.160;2023-07-13T07:24:18;101478.06;;;19.87;100.00
4449;BME280;2237;51.870;6.160;2023-07-13T07:26:45;101478.69;;;19.74;100.00
4449;BME280;2237;51.870;6.160;2023-07-13T07:29:14;101486.31;;;19.81;100.00
4449;BME280;2237;51.870;6.160;2023-07-13T07:31:44;101479.59;;;19.73;100.00
4449;BME280;2237;51.870;6.160;2023-07-13T07:34:13;101473.03;;;19.99;100.00
4449;BME280;2237;51.870;6.160;2023-07-13T07:36:40;101474.72;;;20.35;100.00
4449;BME280;2237;51.870;6.160;2023-07-13T07:39:09;101472.78;;;20.38;100.00
4449;BME280;2237;51.870;6.160;2023-07-13T07:41:35;101466.94;;;20.49;100.00
4449;BME280;2237;51.870;6.160;2023-07-13T07:44:05;101467.84;;;20.80;100.00
4449;BME280;2237;51.870;6.160;2023-07-13T07:46:33;101467.91;;;21.12;100.00
4449;BME280;2237;51.870;6.160;2023-07-13T07:49:00;101475.75;;;21.29;100.00
4449;BME280;2237;51.870;6.160;2023-07-13T07:51:26;101475.66;;;21.15;100.00
4449;BME280;2237;51.870;6.160;2023-07-13T07:53:53;101472.63;;;21.05;100.00
4449;BME280;2237;51.870;6.160;2023-07-13T07:56:20;101473.53;;;21.21;100.00
4449;BME280;2237;51.870;6.160;2023-07-13T07:58:49;101473.94;;;21.14;100.00
4449;BME280;2237;51.870;6.160;2023-07-13T08:01:18;101475.56;;;21.32;100.00
4449;BME280;2237;51.870;6.160;2023-07-13T08:03:48;101466.31;;;21.39;100.00
4449;BME280;2237;51.870;6.160;2023-07-13T08:06:17;101469.00;;;21.23;100.00
4449;BME280;2237;51.870;6.160;2023-07-13T08:08:48;101478.22;;;21.32;100.00
4449;BME280;2237;51.870;6.160;2023-07-13T08:11:16;101478.63;;;21.40;100.00
4449;BME280;2237;51.870;6.160;2023-07-13T08:13:46;101459.09;;;21.57;100.00
4449;BME280;2237;51.870;6.160;2023-07-13T08:16:12;101464.03;;;21.78;100.00
4449;BME280;2237;51.870;6.160;2023-07-13T08:18:39;101471.16;;;22.08;100.00
4449;BME280;2237;51.870;6.160;2023-07-13T08:21:06;101466.72;;;22.08;100.00
4449;BME280;2237;51.870;6.160;2023-07-13T08:23:34;101465.47;;;22.14;100.00
4449;BME280;2237;51.870;6.160;2023-07-13T08:26:01;101471.06;;;22.23;100.00
4449;BME280;2237;51.870;6.160;2023-07-13T08:28:28;101466.06;;;22.33;100.00
4449;BME280;2237;51.870;6.160;2023-07-13T08:30:55;101469.88;;;22.57;100.00
4449;BME280;2237;51.870;6.160;2023-07-13T08:33:22;101475.44;;;22.38;100.00
4449;BME280;2237;51.870;6.160;2023-07-13T08:35:52;101476.13;;;22.56;100.00
4449;BME280;2237;51.870;6.160;2023-07-13T08:38:18;101477.47;;;22.63;100.00
4449;BME280;2237;51.870;6.160;2023-07-13T08:40:50;101479.81;;;23.10;100.00
4449;BME280;2237;51.870;6.160;2023-07-13T08:43:21;101481.25;;;22.87;100.00
4449;BME280;2237;51.870;6.160;2023-07-13T08:45:53;101475.06;;;22.59;100.00
4449;BME280;2237;51.870;6.160;2023-07-13T08:48:27;101473.66;;;22.39;100.00
4449;BME280;2237;51.870;6.160;2023-07-13T08:53:41;101471.75;;;22.27;100.00
4449;BME280;2237;51.870;6.160;2023-07-13T08:56:18;101460.19;;;22.14;100.00
4449;BME280;2237;51.870;6.160;2023-07-13T08:58:48;101468.41;;;22.09;100.00
4449;BME280;2237;51.870;6.160;2023-07-13T09:03:49;101464.38;;;22.60;100.00
4449;BME280;2237;51.870;6.160;2023-07-13T09:06:17;101463.53;;;22.60;100.00
4449;BME280;2237;51.870;6.160;2023-07-13T09:11:28;101470.63;;;22.59;100.00
4449;BME280;2237;51.870;6.160;2023-07-13T09:14:06;101468.75;;;22.89;100.00
4449;BME280;2237;51.870;6.160;2023-07-13T09:16:38;101463.06;;;22.95;100.00
4449;BME280;2237;51.870;6.160;2023-07-13T09:19:07;101467.34;;;23.39;100.00
4449;BME280;2237;51.870;6.160;2023-07-13T09:21:39;101468.03;;;23.14;100.00
4449;BME280;2237;51.870;6.160;2023-07-13T09:24:22;101470.69;;;23.55;100.00
4449;BME280;2237;51.870;6.160;2023-07-13T09:26:54;101467.13;;;23.42;100.00
4449;BME280;2237;51.870;6.160;2023-07-13T09:29:28;101472.88;;;23.75;100.00
4449;BME280;2237;51.870;6.160;2023-07-13T09:31:57;101475.75;;;24.11;100.00
4449;BME280;2237;51.870;6.160;2023-07-13T09:34:28;101468.94;;;24.33;100.00
4449;BME280;2237;51.870;6.160;2023-07-13T09:36:56;101463.41;;;24.23;98.82
4449;BME280;2237;51.870;6.160;2023-07-13T09:39:35;101485.34;;;23.87;94.30
4449;BME280;2237;51.870;6.160;2023-07-13T09:42:18;101477.25;;;23.76;92.69
4449;BME280;2237;51.870;6.160;2023-07-13T09:47:16;101478.19;;;23.75;91.91
4449;BME280;2237;51.870;6.160;2023-07-13T09:49:43;101479.59;;;23.54;94.21
4449;BME280;2237;51.870;6.160;2023-07-13T09:52:12;101482.91;;;23.84;91.40
4449;BME280;2237;51.870;6.160;2023-07-13T09:54:38;101479.28;;;23.98;90.00
4449;BME280;2237;51.870;6.160;2023-07-13T09:57:16;101477.81;;;24.06;92.40
4449;BME280;2237;51.870;6.160;2023-07-13T09:59:45;101480.56;;;23.92;90.57
4449;BME280;2237;51.870;6.160;2023-07-13T10:02:33;101491.88;;;23.42;90.69
4449;BME280;2237;51.870;6.160;2023-07-13T10:05:03;101489.06;;;23.31;94.55
4449;BME280;2237;51.870;6.160;2023-07-13T10:07:32;101500.31;;;22.94;100.00
4449;BME280;2237;51.870;6.160;2023-07-13T10:10:17;101496.88;;;22.35;100.00
4449;BME280;2237;51.870;6.160;2023-07-13T10:12:44;101508.88;;;22.13;100.00
4449;BME280;2237;51.870;6.160;2023-07-13T10:15:21;101511.44;;;22.14;100.00
4449;BME280;2237;51.870;6.160;2023-07-13T10:17:51;101509.88;;;21.96;100.00
4449;BME280;2237;51.870;6.160;2023-07-13T10:20:20;101503.50;;;22.14;100.00
4449;BME280;2237;51.870;6.160;2023-07-13T10:23:05;101497.06;;;22.32;100.00
4449;BME280;2237;51.870;6.160;2023-07-13T10:25:39;101509.31;;;22.49;100.00
4449;BME280;2237;51.870;6.160;2023-07-13T10:30:53;101507.53;;;22.64;100.00
4449;BME280;2237;51.870;6.160;2023-07-13T10:33:20;101497.38;;;22.56;100.00
4449;BME280;2237;51.870;6.160;2023-07-13T10:35:48;101499.66;;;22.62;100.00
4449;BME280;2237;51.870;6.160;2023-07-13T10:38:21;101512.16;;;22.60;100.00
4449;BME280;2237;51.870;6.160;2023-07-13T10:41:01;101523.53;;;22.34;100.00
4449;BME280;2237;51.870;6.160;2023-07-13T10:43:39;101527.63;;;22.10;100.00
4449;BME280;2237;51.870;6.160;2023-07-13T10:46:11;101531.94;;;21.97;100.00
4449;BME280;2237;51.870;6.160;2023-07-13T10:48:40;101528.34;;;22.27;100.00
4449;BME280;2237;51.870;6.160;2023-07-13T10:51:10;101525.25;;;22.49;100.00
4449;BME280;2237;51.870;6.160;2023-07-13T10:53:39;101522.59;;;22.49;100.00
4449;BME280;2237;51.870;6.160;2023-07-13T10:56:27;101524.25;;;22.66;100.00
4449;BME280;2237;51.870;6.160;2023-07-13T10:59:17;101540.25;;;22.64;100.00
4449;BME280;2237;51.870;6.160;2023-07-13T11:01:54;101539.47;;;22.62;100.00
4449;BME280;2237;51.870;6.160;2023-07-13T11:04:23;101535.59;;;22.53;100.00
4449;BME280;2237;51.870;6.160;2023-07-13T11:06:56;101547.44;;;22.18;100.00
4449;BME280;2237;51.870;6.160;2023-07-13T11:09:35;101555.09;;;22.09;100.00
4449;BME280;2237;51.870;6.160;2023-07-13T11:15:01;101560.66;;;22.20;100.00
4449;BME280;2237;51.870;6.160;2023-07-13T11:22:44;101565.63;;;22.84;100.00
4449;BME280;2237;51.870;6.160;2023-07-13T11:28:05;101565.91;;;22.06;100.00
4449;BME280;2237;51.870;6.160;2023-07-13T11:30:36;101581.50;;;21.65;100.00
4449;BME280;2237;51.870;6.160;2023-07-13T11:35:37;101570.53;;;21.24;100.00
4449;BME280;2237;51.870;6.160;2023-07-13T11:38:13;101568.06;;;21.21;100.00
4449;BME280;2237;51.870;6.160;2023-07-13T11:40:43;101556.50;;;21.84;100.00
4449;BME280;2237;51.870;6.160;2023-07-13T11:43:13;101559.63;;;22.66;100.00
4449;BME280;2237;51.870;6.160;2023-07-13T11:45:40;101559.25;;;23.00;100.00
4449;BME280;2237;51.870;6.160;2023-07-13T11:48:25;101565.97;;;23.06;100.00
4449;BME280;2237;51.870;6.160;2023-07-13T11:50:56;101570.44;;;23.05;100.00
4449;BME280;2237;51.870;6.160;2023-07-13T11:53:25;101573.66;;;23.25;100.00
4449;BME280;2237;51.870;6.160;2023-07-13T11:55:54;101562.84;;;22.71;100.00
4449;BME280;2237;51.870;6.160;2023-07-13T11:58:24;101568.91;;;22.87;100.00
4449;BME280;2237;51.870;6.160;2023-07-13T12:00:52;101569.56;;;23.19;100.00
4449;BME280;2237;51.870;6.160;2023-07-13T12:03:22;101562.09;;;22.97;100.00
4449;BME280;2237;51.870;6.160;2023-07-13T12:08:24;101561.81;;;23.02;100.00
4449;BME280;2237;51.870;6.160;2023-07-13T12:10:58;101561.47;;;23.49;100.00
4449;BME280;2237;51.870;6.160;2023-07-13T12:13:26;101564.88;;;23.51;100.00
4449;BME280;2237;51.870;6.160;2023-07-13T12:15:53;101561.94;;;23.55;100.00
4449;BME280;2237;51.870;6.160;2023-07-13T12:18:23;101557.50;;;23.28;100.00
4449;BME280;2237;51.870;6.160;2023-07-13T12:20:57;101562.75;;;23.43;100.00
4449;BME280;2237;51.870;6.160;2023-07-13T12:23:31;101568.75;;;23.19;100.00
4449;BME280;2237;51.870;6.160;2023-07-13T12:26:02;101561.63;;;22.91;100.00
4449;BME280;2237;51.870;6.160;2023-07-13T12:28:35;101564.38;;;23.18;100.00
4449;BME280;2237;51.870;6.160;2023-07-13T12:31:05;101552.88;;;23.17;100.00
4449;BME280;2237;51.870;6.160;2023-07-13T12:33:33;101560.03;;;23.57;100.00
4449;BME280;2237;51.870;6.160;2023-07-13T12:36:02;101559.50;;;23.79;100.00
4449;BME280;2237;51.870;6.160;2023-07-13T12:38:31;101556.88;;;24.18;100.00
4449;BME280;2237;51.870;6.160;2023-07-13T12:40:58;101563.03;;;23.80;100.00
4449;BME280;2237;51.870;6.160;2023-07-13T12:43:25;101556.91;;;24.44;100.00
4449;BME280;2237;51.870;6.160;2023-07-13T12:46:20;101555.44;;;25.03;100.00
4449;BME280;2237;51.870;6.160;2023-07-13T12:48:53;101557.59;;;25.34;96.92
4449;BME280;2237;51.870;6.160;2023-07-13T12:51:40;101551.75;;;25.89;95.46
4449;BME280;2237;51.870;6.160;2023-07-13T12:54:17;101551.38;;;26.06;94.93
4449;BME280;2237;51.870;6.160;2023-07-13T12:56:45;101562.72;;;26.21;95.05
4449;BME280;2237;51.870;6.160;2023-07-13T12:59:20;101553.94;;;26.54;91.44
4449;BME280;2237;51.870;6.160;2023-07-13T13:01:48;101560.22;;;26.87;89.31
4449;BME280;2237;51.870;6.160;2023-07-13T13:04:16;101544.28;;;27.41;86.49
4449;BME280;2237;51.870;6.160;2023-07-13T13:06:48;101548.50;;;27.55;80.34
4449;BME280;2237;51.870;6.160;2023-07-13T13:09:17;101549.13;;;27.25;75.61
4449;BME280;2237;51.870;6.160;2023-07-13T13:11:44;101554.59;;;27.46;77.82
4449;BME280;2237;51.870;6.160;2023-07-13T13:14:11;101544.88;;;27.88;75.85
4449;BME280;2237;51.870;6.160;2023-07-13T13:16:46;101554.91;;;28.07;71.51
4449;BME280;2237;51.870;6.160;2023-07-13T13:19:16;101551.19;;;27.87;72.07
4449;BME280;2237;51.870;6.160;2023-07-13T13:21:44;101549.97;;;27.91;74.56
4449;BME280;2237;51.870;6.160;2023-07-13T13:24:16;101549.81;;;28.24;76.47
4449;BME280;2237;51.870;6.160;2023-07-13T13:26:44;101548.19;;;27.15;71.27
4449;BME280;2237;51.870;6.160;2023-07-13T13:29:13;101548.91;;;26.95;74.14
4449;BME280;2237;51.870;6.160;2023-07-13T13:31:41;101547.94;;;27.18;74.85
4449;BME280;2237;51.870;6.160;2023-07-13T13:34:10;101544.50;;;27.49;73.88
4449;BME280;2237;51.870;6.160;2023-07-13T13:36:37;101553.06;;;27.75;72.62
4449;BME280;2237;51.870;6.160;2023-07-13T13:39:16;101548.47;;;27.98;70.24
4449;BME280;2237;51.870;6.160;2023-07-13T13:41:44;101540.41;;;27.12;73.79